sensor_id;sensor_type;location;lat;lon;timestamp;temperature;humidity
10678;DHT22;5387;48.722;9.110;2023-06-04T00:00:37;13.70;99.90
10678;DHT22;5387;48.722;9.110;2023-06-04T00:03:04;13.60;99.90
10678;DHT22;5387;48.722;9.110;2023-06-04T00:05:31;13.60;99.90
10678;DHT22;5387;48.722;9.110;2023-06-04T00:07:58;13.60;99.90
10678;DHT22;5387;48.722;9.110;2023-06-04T00:10:25;13.50;99.90
10678;DHT22;5387;48.722;9.110;2023-06-04T00:12:53;13.50;99.90
10678;DHT22;5387;48.722;9.110;2023-06-04T00:15:19;13.40;99.90
10678;DHT22;5387;48.722;9.110;2023-06-04T00:17:46;13.40;99.90
10678;DHT22;5387;48.722;9.110;2023-06-04T00:20:13;13.40;99.90
10678;DHT22;5387;48.722;9.110;2023-06-04T00:22:40;13.30;99.90
10678;DHT22;5387;48.722;9.110;2023-06-04T00:25:08;13.20;99.90
10678;DHT22;5387;48.722;9.110;2023-06-04T00:27:35;13.20;99.90
10678;DHT22;5387;48.722;9.110;2023-06-04T00:30:04;13.30;99.90
10678;DHT22;5387;48.722;9.110;2023-06-04T00:32:31;13.20;99.90
10678;DHT22;5387;48.722;9.110;2023-06-04T00:34:58;13.20;99.90
10678;DHT22;5387;48.722;9.110;2023-06-04T00:37:28;13.20;99.90
10678;DHT22;5387;48.722;9.110;2023-06-04T00:39:55;13.20;99.90
10678;DHT22;5387;48.722;9.110;2023-06-04T00:42:22;13.10;99.90
10678;DHT22;5387;48.722;9.110;2023-06-04T00:44:49;13.10;99.90
10678;DHT22;5387;48.722;9.110;2023-06-04T00:47:19;13.00;99.90
10678;DHT22;5387;48.722;9.110;2023-06-04T00:49:46;13.00;99.90
10678;DHT22;5387;48.722;9.110;2023-06-04T00:52:14;13.00;99.90
10678;DHT22;5387;48.722;9.110;2023-06-04T00:54:42;12.90;99.90
10678;DHT22;5387;48.722;9.110;2023-06-04T00:57:09;12.90;99.90
10678;DHT22;5387;48.722;9.110;2023-06-04T00:59:38;12.90;99.90
10678;DHT22;5387;48.722;9.110;2023-06-04T01:02:08;12.90;99.90
10678;DHT22;5387;48.722;9.110;2023-06-04T01:04:44;12.80;99.90
10678;DHT22;5387;48.722;9.110;2023-06-04T01:07:14;12.80;99.90
10678;DHT22;5387;48.722;9.110;2023-06-04T01:09:43;12.80;99.90
10678;DHT22;5387;48.722;9.110;2023-06-04T01:12:11;12.80;99.90
10678;DHT22;5387;48.722;9.110;2023-06-04T01:14:38;12.70;99.90
10678;DHT22;5387;48.722;9.110;2023-06-04T01:17:09;12.70;99.90
10678;DHT22;5387;48.722;9.110;2023-06-04T01:20:07;12.60;99.90
10678;DHT22;5387;48.722;9.110;2023-06-04T01:22:41;12.70;99.90
10678;DHT22;5387;48.722;9.110;2023-06-04T01:25:13;12.70;99.90
10678;DHT22;5387;48.722;9.110;2023-06-04T01:27:46;12.60;99.90
10678;DHT22;5387;48.722;9.110;2023-06-04T01:30:15;12.50;99.90
10678;DHT22;5387;48.722;9.110;2023-06-04T01:32:42;12.50;99.90
10678;DHT22;5387;48.722;9.110;2023-06-04T01:35:11;12.50;99.90
10678;DHT22;5387;48.722;9.110;2023-06-04T01:37:38;12.50;99.90
10678;DHT22;5387;48.722;9.110;2023-06-04T01:40:06;12.50;99.90
10678;DHT22;5387;48.722;9.110;2023-06-04T01:42:33;12.50;99.90
10678;DHT22;5387;48.722;9.110;2023-06-04T01:45:00;12.50;99.90
10678;DHT22;5387;48.722;9.110;2023-06-04T01:47:27;12.50;99.90
10678;DHT22;5387;48.722;9.110;2023-06-04T01:49:54;12.50;99.90
10678;DHT22;5387;48.722;9.110;2023-06-04T01:52:22;12.40;99.90
10678;DHT22;5387;48.722;9.110;2023-06-04T01:54:49;12.60;99.90
10678;DHT22;5387;48.722;9.110;2023-06-04T01:57:17;12.50;99.90
10678;DHT22;5387;48.722;9.110;2023-06-04T01:59:44;12.50;99.90
10678;DHT22;5387;48.722;9.110;2023-06-04T02:02:12;12.40;99.90
10678;DHT22;5387;48.722;9.110;2023-06-04T02:04:39;12.40;99.90
10678;DHT22;5387;48.722;9.110;2023-06-04T02:07:07;12.40;99.90
10678;DHT22;5387;48.722;9.110;2023-06-04T02:09:35;12.30;99.90
10678;DHT22;5387;48.722;9.110;2023-06-04T02:12:02;12.20;99.90
10678;DHT22;5387;48.722;9.110;2023-06-04T02:14:29;12.20;99.90
10678;DHT22;5387;48.722;9.110;2023-06-04T02:16:56;12.20;99.90
10678;DHT22;5387;48.722;9.110;2023-06-04T02:19:23;12.10;99.90
10678;DHT22;5387;48.722;9.110;2023-06-04T02:21:51;12.10;99.90
10678;DHT22;5387;48.722;9.110;2023-06-04T02:24:18;12.00;99.90
10678;DHT22;5387;48.722;9.110;2023-06-04T02:26:46;12.00;99.90
10678;DHT22;5387;48.722;9.110;2023-06-04T02:29:13;12.00;99.90
10678;DHT22;5387;48.722;9.110;2023-06-04T02:31:39;12.00;99.90
10678;DHT22;5387;48.722;9.110;2023-06-04T02:34:06;11.90;99.90
10678;DHT22;5387;48.722;9.110;2023-06-04T02:36:34;11.90;99.90
10678;DHT22;5387;48.722;9.110;2023-06-04T02:39:00;11.80;99.90
10678;DHT22;5387;48.722;9.110;2023-06-04T02:41:28;11.80;99.90
10678;DHT22;5387;48.722;9.110;2023-06-04T02:43:56;11.60;99.90
10678;DHT22;5387;48.722;9.110;2023-06-04T02:46:23;11.70;99.90
10678;DHT22;5387;48.722;9.110;2023-06-04T02:48:50;11.60;99.90
10678;DHT22;5387;48.722;9.110;2023-06-04T02:51:17;11.80;99.90
10678;DHT22;5387;48.722;9.110;2023-06-04T02:53:43;11.60;99.90
10678;DHT22;5387;48.722;9.110;2023-06-04T02:56:11;11.60;99.90
10678;DHT22;5387;48.722;9.110;2023-06-04T02:58:37;11.50;99.90
10678;DHT22;5387;48.722;9.110;2023-06-04T03:01:18;11.50;99.90
10678;DHT22;5387;48.722;9.110;2023-06-04T03:03:46;11.50;99.90
10678;DHT22;5387;48.722;9.110;2023-06-04T03:06:13;11.50;99.90
10678;DHT22;5387;48.722;9.110;2023-06-04T03:08:41;11.50;99.90
10678;DHT22;5387;48.722;9.110;2023-06-04T03:11:08;11.50;99.90
10678;DHT22;5387;48.722;9.110;2023-06-04T03:13:35;11.50;99.90
10678;DHT22;5387;48.722;9.110;2023-06-04T03:16:02;11.50;99.90
10678;DHT22;5387;48.722;9.110;2023-06-04T03:18:36;11.50;99.90
10678;DHT22;5387;48.722;9.110;2023-06-04T03:21:03;11.50;99.90
10678;DHT22;5387;48.722;9.110;2023-06-04T03:23:31;11.50;99.90
10678;DHT22;5387;48.722;9.110;2023-06-04T03:25:58;11.40;99.90
10678;DHT22;5387;48.722;9.110;2023-06-04T03:28:25;11.40;99.90
10678;DHT22;5387;48.722;9.110;2023-06-04T03:30:52;11.40;99.90
10678;DHT22;5387;48.722;9.110;2023-06-04T03:33:18;11.40;99.90
10678;DHT22;5387;48.722;9.110;2023-06-04T03:35:47;11.40;99.90
10678;DHT22;5387;48.722;9.110;2023-06-04T03:38:15;11.30;99.90
10678;DHT22;5387;48.722;9.110;2023-06-04T03:40:42;11.30;99.90
10678;DHT22;5387;48.722;9.110;2023-06-04T03:43:09;11.40;99.90
10678;DHT22;5387;48.722;9.110;2023-06-04T03:45:36;11.50;99.90
10678;DHT22;5387;48.722;9.110;2023-06-04T03:48:03;11.50;99.90
10678;DHT22;5387;48.722;9.110;2023-06-04T03:50:30;11.50;99.90
10678;DHT22;5387;48.722;9.110;2023-06-04T03:52:58;11.60;99.90
10678;DHT22;5387;48.722;9.110;2023-06-04T03:55:25;11.60;99.90
10678;DHT22;5387;48.722;9.110;2023-06-04T03:57:52;11.60;99.90
10678;DHT22;5387;48.722;9.110;2023-06-04T04:00:19;11.60;99.90
10678;DHT22;5387;48.722;9.110;2023-06-04T04:02:47;11.70;99.90
10678;DHT22;5387;48.722;9.110;2023-06-04T04:05:14;11.70;99.90
10678;DHT22;5387;48.722;9.110;2023-06-04T04:07:41;11.90;99.90
10678;DHT22;5387;48.722;9.110;2023-06-04T04:10:09;11.90;99.90
10678;DHT22;5387;48.722;9.110;2023-06-04T04:12:36;11.90;99.90
10678;DHT22;5387;48.722;9.110;2023-06-04T04:15:04;12.00;99.90
10678;DHT22;5387;48.722;9.110;2023-06-04T04:17:31;12.00;99.90
10678;DHT22;5387;48.722;9.110;2023-06-04T04:19:58;12.10;99.90
10678;DHT22;5387;48.722;9.110;2023-06-04T04:22:24;12.10;99.90
10678;DHT22;5387;48.722;9.110;2023-06-04T04:24:51;12.20;99.90
10678;DHT22;5387;48.722;9.110;2023-06-04T04:27:19;12.30;99.90
10678;DHT22;5387;48.722;9.110;2023-06-04T04:29:46;12.30;99.90
10678;DHT22;5387;48.722;9.110;2023-06-04T04:32:13;12.40;99.90
10678;DHT22;5387;48.722;9.110;2023-06-04T04:34:50;12.40;99.90
10678;DHT22;5387;48.722;9.110;2023-06-04T04:37:18;12.60;99.90
10678;DHT22;5387;48.722;9.110;2023-06-04T04:39:47;12.60;99.90
10678;DHT22;5387;48.722;9.110;2023-06-04T04:42:18;12.70;99.90
10678;DHT22;5387;48.722;9.110;2023-06-04T04:44:45;12.70;99.90
10678;DHT22;5387;48.722;9.110;2023-06-04T04:47:14;12.70;99.90
10678;DHT22;5387;48.722;9.110;2023-06-04T04:49:41;12.60;99.90
10678;DHT22;5387;48.722;9.110;2023-06-04T04:52:08;12.70;99.90
10678;DHT22;5387;48.722;9.110;2023-06-04T04:54:34;12.80;99.90
10678;DHT22;5387;48.722;9.110;2023-06-04T04:57:01;12.90;99.90
10678;DHT22;5387;48.722;9.110;2023-06-04T04:59:29;13.00;99.90
10678;DHT22;5387;48.722;9.110;2023-06-04T05:01:56;13.00;99.90
10678;DHT22;5387;48.722;9.110;2023-06-04T05:04:23;13.40;99.90
10678;DHT22;5387;48.722;9.110;2023-06-04T05:06:50;13.50;99.90
10678;DHT22;5387;48.722;9.110;2023-06-04T05:09:16;13.60;99.90
10678;DHT22;5387;48.722;9.110;2023-06-04T05:11:43;13.60;99.90
10678;DHT22;5387;48.722;9.110;2023-06-04T05:14:10;13.70;99.90
10678;DHT22;5387;48.722;9.110;2023-06-04T05:16:38;13.70;99.90
10678;DHT22;5387;48.722;9.110;2023-06-04T05:19:06;13.80;99.90
10678;DHT22;5387;48.722;9.110;2023-06-04T05:21:34;13.90;99.90
10678;DHT22;5387;48.722;9.110;2023-06-04T05:24:02;14.00;99.90
10678;DHT22;5387;48.722;9.110;2023-06-04T05:26:29;14.20;99.90
10678;DHT22;5387;48.722;9.110;2023-06-04T05:28:56;14.40;99.90
10678;DHT22;5387;48.722;9.110;2023-06-04T05:31:23;14.50;99.90
10678;DHT22;5387;48.722;9.110;2023-06-04T05:33:53;14.60;99.90
10678;DHT22;5387;48.722;9.110;2023-06-04T05:36:20;14.50;99.90
10678;DHT22;5387;48.722;9.110;2023-06-04T05:38:46;14.70;99.90
10678;DHT22;5387;48.722;9.110;2023-06-04T05:41:13;14.60;99.90
10678;DHT22;5387;48.722;9.110;2023-06-04T05:43:40;14.90;99.90
10678;DHT22;5387;48.722;9.110;2023-06-04T05:46:09;14.90;99.90
10678;DHT22;5387;48.722;9.110;2023-06-04T05:48:36;14.90;99.90
10678;DHT22;5387;48.722;9.110;2023-06-04T05:51:04;14.90;99.90
10678;DHT22;5387;48.722;9.110;2023-06-04T05:53:31;15.20;99.90
10678;DHT22;5387;48.722;9.110;2023-06-04T05:55:58;15.30;99.90
10678;DHT22;5387;48.722;9.110;2023-06-04T05:58:25;15.10;99.70
10678;DHT22;5387;48.722;9.110;2023-06-04T06:00:51;15.20;99.70
10678;DHT22;5387;48.722;9.110;2023-06-04T06:03:18;15.40;99.90
10678;DHT22;5387;48.722;9.110;2023-06-04T06:05:45;15.40;99.90
10678;DHT22;5387;48.722;9.110;2023-06-04T06:08:14;15.40;99.40
10678;DHT22;5387;48.722;9.110;2023-06-04T06:10:41;15.50;99.90
10678;DHT22;5387;48.722;9.110;2023-06-04T06:13:07;15.60;99.90
10678;DHT22;5387;48.722;9.110;2023-06-04T06:15:34;15.70;99.90
10678;DHT22;5387;48.722;9.110;2023-06-04T06:18:01;15.60;99.70
10678;DHT22;5387;48.722;9.110;2023-06-04T06:20:28;15.60;99.80
10678;DHT22;5387;48.722;9.110;2023-06-04T06:22:55;15.40;99.80
10678;DHT22;5387;48.722;9.110;2023-06-04T06:25:23;15.50;99.60
10678;DHT22;5387;48.722;9.110;2023-06-04T06:27:50;15.50;99.60
10678;DHT22;5387;48.722;9.110;2023-06-04T06:30:17;15.60;99.50
10678;DHT22;5387;48.722;9.110;2023-06-04T06:32:44;15.60;99.10
10678;DHT22;5387;48.722;9.110;2023-06-04T06:35:11;15.60;99.10
10678;DHT22;5387;48.722;9.110;2023-06-04T06:37:38;15.70;99.30
10678;DHT22;5387;48.722;9.110;2023-06-04T06:40:08;15.90;99.90
10678;DHT22;5387;48.722;9.110;2023-06-04T06:42:36;15.90;98.20
10678;DHT22;5387;48.722;9.110;2023-06-04T06:45:04;15.90;98.90
10678;DHT22;5387;48.722;9.110;2023-06-04T06:47:31;16.00;97.80
10678;DHT22;5387;48.722;9.110;2023-06-04T06:49:58;16.00;98.50
10678;DHT22;5387;48.722;9.110;2023-06-04T06:52:25;16.20;98.30
10678;DHT22;5387;48.722;9.110;2023-06-04T06:54:52;16.30;98.40
10678;DHT22;5387;48.722;9.110;2023-06-04T06:57:19;16.30;98.00
10678;DHT22;5387;48.722;9.110;2023-06-04T06:59:47;16.40;97.80
10678;DHT22;5387;48.722;9.110;2023-06-04T07:02:14;16.50;97.30
10678;DHT22;5387;48.722;9.110;2023-06-04T07:04:41;16.50;98.30
10678;DHT22;5387;48.722;9.110;2023-06-04T07:07:07;17.00;98.60
10678;DHT22;5387;48.722;9.110;2023-06-04T07:09:34;17.10;97.80
10678;DHT22;5387;48.722;9.110;2023-06-04T07:12:01;17.30;97.40
10678;DHT22;5387;48.722;9.110;2023-06-04T07:14:28;17.50;97.40
10678;DHT22;5387;48.722;9.110;2023-06-04T07:16:56;17.60;97.10
10678;DHT22;5387;48.722;9.110;2023-06-04T07:19:23;17.70;97.30
10678;DHT22;5387;48.722;9.110;2023-06-04T07:21:50;17.80;97.00
10678;DHT22;5387;48.722;9.110;2023-06-04T07:24:16;17.70;95.50
10678;DHT22;5387;48.722;9.110;2023-06-04T07:26:43;17.80;96.60
10678;DHT22;5387;48.722;9.110;2023-06-04T07:29:10;17.80;96.60
10678;DHT22;5387;48.722;9.110;2023-06-04T07:31:37;17.90;96.70
10678;DHT22;5387;48.722;9.110;2023-06-04T07:34:05;18.10;97.00
10678;DHT22;5387;48.722;9.110;2023-06-04T07:36:32;18.20;97.80
10678;DHT22;5387;48.722;9.110;2023-06-04T07:38:59;18.30;96.00
10678;DHT22;5387;48.722;9.110;2023-06-04T07:41:26;18.40;95.80
10678;DHT22;5387;48.722;9.110;2023-06-04T07:43:52;18.50;96.00
10678;DHT22;5387;48.722;9.110;2023-06-04T07:46:19;18.60;95.20
10678;DHT22;5387;48.722;9.110;2023-06-04T07:48:46;18.70;95.80
10678;DHT22;5387;48.722;9.110;2023-06-04T07:51:14;19.00;96.70
10678;DHT22;5387;48.722;9.110;2023-06-04T07:53:41;19.20;95.00
10678;DHT22;5387;48.722;9.110;2023-06-04T07:56:11;19.20;94.30
10678;DHT22;5387;48.722;9.110;2023-06-04T07:58:38;19.00;94.20
10678;DHT22;5387;48.722;9.110;2023-06-04T08:01:04;18.80;93.60
10678;DHT22;5387;48.722;9.110;2023-06-04T08:03:31;18.70;93.60
10678;DHT22;5387;48.722;9.110;2023-06-04T08:05:58;18.70;94.40
10678;DHT22;5387;48.722;9.110;2023-06-04T08:08:27;18.60;93.70
10678;DHT22;5387;48.722;9.110;2023-06-04T08:10:53;18.60;93.30
10678;DHT22;5387;48.722;9.110;2023-06-04T08:13:20;18.70;94.40
10678;DHT22;5387;48.722;9.110;2023-06-04T08:15:47;18.70;93.70
10678;DHT22;5387;48.722;9.110;2023-06-04T08:18:14;18.80;94.90
10678;DHT22;5387;48.722;9.110;2023-06-04T08:20:41;18.90;93.30
10678;DHT22;5387;48.722;9.110;2023-06-04T08:23:07;19.00;93.30
10678;DHT22;5387;48.722;9.110;2023-06-04T08:25:36;19.00;93.80
10678;DHT22;5387;48.722;9.110;2023-06-04T08:28:02;19.20;93.30
10678;DHT22;5387;48.722;9.110;2023-06-04T08:30:29;19.10;92.70
10678;DHT22;5387;48.722;9.110;2023-06-04T08:32:56;19.10;92.20
10678;DHT22;5387;48.722;9.110;2023-06-04T08:35:23;19.40;92.00
10678;DHT22;5387;48.722;9.110;2023-06-04T08:37:50;19.20;92.70
10678;DHT22;5387;48.722;9.110;2023-06-04T08:40:16;19.30;93.00
10678;DHT22;5387;48.722;9.110;2023-06-04T08:42:45;19.40;92.00
10678;DHT22;5387;48.722;9.110;2023-06-04T08:45:13;19.50;93.00
10678;DHT22;5387;48.722;9.110;2023-06-04T08:47:44;19.80;92.80
10678;DHT22;5387;48.722;9.110;2023-06-04T08:50:11;20.00;93.00
10678;DHT22;5387;48.722;9.110;2023-06-04T08:52:38;20.00;91.80
10678;DHT22;5387;48.722;9.110;2023-06-04T08:55:08;20.10;91.80
10678;DHT22;5387;48.722;9.110;2023-06-04T08:57:35;20.20;91.50
10678;DHT22;5387;48.722;9.110;2023-06-04T09:00:05;20.10;90.00
10678;DHT22;5387;48.722;9.110;2023-06-04T09:02:34;20.10;91.60
10678;DHT22;5387;48.722;9.110;2023-06-04T09:05:03;20.40;91.40
10678;DHT22;5387;48.722;9.110;2023-06-04T09:07:35;20.30;90.50
10678;DHT22;5387;48.722;9.110;2023-06-04T09:10:02;20.30;90.30
10678;DHT22;5387;48.722;9.110;2023-06-04T09:12:31;20.40;90.40
10678;DHT22;5387;48.722;9.110;2023-06-04T09:14:59;20.70;91.20
10678;DHT22;5387;48.722;9.110;2023-06-04T09:17:27;20.80;90.40
10678;DHT22;5387;48.722;9.110;2023-06-04T09:19:55;20.90;90.30
10678;DHT22;5387;48.722;9.110;2023-06-04T09:22:32;20.90;90.90
10678;DHT22;5387;48.722;9.110;2023-06-04T09:24:59;21.10;89.40
10678;DHT22;5387;48.722;9.110;2023-06-04T09:27:26;21.00;88.80
10678;DHT22;5387;48.722;9.110;2023-06-04T09:29:55;21.00;88.90
10678;DHT22;5387;48.722;9.110;2023-06-04T09:32:22;21.00;87.80
10678;DHT22;5387;48.722;9.110;2023-06-04T09:34:50;21.20;89.60
10678;DHT22;5387;48.722;9.110;2023-06-04T09:37:18;21.30;89.50
10678;DHT22;5387;48.722;9.110;2023-06-04T09:39:52;21.40;87.30
10678;DHT22;5387;48.722;9.110;2023-06-04T09:42:20;21.40;88.10
10678;DHT22;5387;48.722;9.110;2023-06-04T09:44:47;21.60;88.90
10678;DHT22;5387;48.722;9.110;2023-06-04T09:47:14;21.80;91.30
10678;DHT22;5387;48.722;9.110;2023-06-04T09:52:18;21.70;87.70
10678;DHT22;5387;48.722;9.110;2023-06-04T09:54:46;21.80;86.50
10678;DHT22;5387;48.722;9.110;2023-06-04T09:57:14;21.90;86.30
10678;DHT22;5387;48.722;9.110;2023-06-04T09:59:44;21.80;86.80
10678;DHT22;5387;48.722;9.110;2023-06-04T10:02:12;21.90;85.90
10678;DHT22;5387;48.722;9.110;2023-06-04T10:04:41;22.00;86.10
10678;DHT22;5387;48.722;9.110;2023-06-04T10:07:09;22.20;85.40
10678;DHT22;5387;48.722;9.110;2023-06-04T10:09:39;22.10;85.60
10678;DHT22;5387;48.722;9.110;2023-06-04T10:12:11;21.90;85.20
10678;DHT22;5387;48.722;9.110;2023-06-04T10:14:44;21.90;87.60
10678;DHT22;5387;48.722;9.110;2023-06-04T10:17:12;22.20;87.80
10678;DHT22;5387;48.722;9.110;2023-06-04T10:19:43;22.30;83.70
10678;DHT22;5387;48.722;9.110;2023-06-04T10:22:10;22.60;85.40
10678;DHT22;5387;48.722;9.110;2023-06-04T10:24:39;22.80;84.70
10678;DHT22;5387;48.722;9.110;2023-06-04T10:27:06;22.70;81.90
10678;DHT22;5387;48.722;9.110;2023-06-04T10:29:36;22.50;80.60
10678;DHT22;5387;48.722;9.110;2023-06-04T10:32:04;22.40;80.70
10678;DHT22;5387;48.722;9.110;2023-06-04T10:34:31;22.40;80.70
10678;DHT22;5387;48.722;9.110;2023-06-04T10:36:58;22.30;79.80
10678;DHT22;5387;48.722;9.110;2023-06-04T10:39:26;22.50;82.20
10678;DHT22;5387;48.722;9.110;2023-06-04T10:42:02;22.60;82.20
10678;DHT22;5387;48.722;9.110;2023-06-04T10:44:29;22.80;83.80
10678;DHT22;5387;48.722;9.110;2023-06-04T10:46:57;23.00;83.20
10678;DHT22;5387;48.722;9.110;2023-06-04T10:49:27;23.20;82.50
10678;DHT22;5387;48.722;9.110;2023-06-04T10:51:54;23.30;80.50
10678;DHT22;5387;48.722;9.110;2023-06-04T10:54:23;23.40;86.60
10678;DHT22;5387;48.722;9.110;2023-06-04T10:56:51;23.30;80.40
10678;DHT22;5387;48.722;9.110;2023-06-04T10:59:19;23.20;78.20
10678;DHT22;5387;48.722;9.110;2023-06-04T11:01:47;22.80;77.70
10678;DHT22;5387;48.722;9.110;2023-06-04T11:04:24;23.20;79.30
10678;DHT22;5387;48.722;9.110;2023-06-04T11:07:00;23.50;79.80
10678;DHT22;5387;48.722;9.110;2023-06-04T11:09:29;23.60;81.00
10678;DHT22;5387;48.722;9.110;2023-06-04T11:11:57;23.50;77.00
10678;DHT22;5387;48.722;9.110;2023-06-04T11:14:25;23.50;79.80
10678;DHT22;5387;48.722;9.110;2023-06-04T11:16:52;23.70;79.90
10678;DHT22;5387;48.722;9.110;2023-06-04T11:19:19;23.50;78.50
10678;DHT22;5387;48.722;9.110;2023-06-04T11:21:46;23.70;76.70
10678;DHT22;5387;48.722;9.110;2023-06-04T11:24:13;23.70;76.40
10678;DHT22;5387;48.722;9.110;2023-06-04T11:26:40;24.10;77.50
10678;DHT22;5387;48.722;9.110;2023-06-04T11:29:10;23.90;75.10
10678;DHT22;5387;48.722;9.110;2023-06-04T11:31:45;24.10;75.90
10678;DHT22;5387;48.722;9.110;2023-06-04T11:34:22;24.20;74.90
10678;DHT22;5387;48.722;9.110;2023-06-04T11:36:49;24.30;75.90
10678;DHT22;5387;48.722;9.110;2023-06-04T11:39:18;24.80;76.70
10678;DHT22;5387;48.722;9.110;2023-06-04T11:41:45;25.50;78.20
10678;DHT22;5387;48.722;9.110;2023-06-04T11:44:13;26.50;77.40
10678;DHT22;5387;48.722;9.110;2023-06-04T11:46:40;27.40;72.80
10678;DHT22;5387;48.722;9.110;2023-06-04T11:49:11;28.60;73.50
10678;DHT22;5387;48.722;9.110;2023-06-04T11:51:38;29.20;67.50
10678;DHT22;5387;48.722;9.110;2023-06-04T11:54:05;28.90;64.50
10678;DHT22;5387;48.722;9.110;2023-06-04T11:56:32;28.10;66.00
10678;DHT22;5387;48.722;9.110;2023-06-04T11:58:59;28.20;65.80
10678;DHT22;5387;48.722;9.110;2023-06-04T12:01:26;30.40;67.80
10678;DHT22;5387;48.722;9.110;2023-06-04T12:03:56;31.90;62.20
10678;DHT22;5387;48.722;9.110;2023-06-04T12:06:24;33.40;59.20
10678;DHT22;5387;48.722;9.110;2023-06-04T12:08:52;34.40;61.80
10678;DHT22;5387;48.722;9.110;2023-06-04T12:11:26;34.60;55.90
10678;DHT22;5387;48.722;9.110;2023-06-04T12:13:54;34.00;51.90
10678;DHT22;5387;48.722;9.110;2023-06-04T12:16:21;31.10;53.70
10678;DHT22;5387;48.722;9.110;2023-06-04T12:18:48;30.00;54.10
10678;DHT22;5387;48.722;9.110;2023-06-04T12:21:24;28.80;55.30
10678;DHT22;5387;48.722;9.110;2023-06-04T12:23:54;27.70;56.30
10678;DHT22;5387;48.722;9.110;2023-06-04T12:26:22;27.20;58.40
10678;DHT22;5387;48.722;9.110;2023-06-04T12:29:01;28.30;59.80
10678;DHT22;5387;48.722;9.110;2023-06-04T12:31:29;29.80;59.10
10678;DHT22;5387;48.722;9.110;2023-06-04T12:33:58;31.10;56.00
10678;DHT22;5387;48.722;9.110;2023-06-04T12:36:27;32.10;52.70
10678;DHT22;5387;48.722;9.110;2023-06-04T12:38:58;30.60;53.60
10678;DHT22;5387;48.722;9.110;2023-06-04T12:41:26;30.40;54.30
10678;DHT22;5387;48.722;9.110;2023-06-04T12:43:53;30.50;53.50
10678;DHT22;5387;48.722;9.110;2023-06-04T12:46:20;31.20;53.40
10678;DHT22;5387;48.722;9.110;2023-06-04T12:48:47;32.20;52.50
10678;DHT22;5387;48.722;9.110;2023-06-04T12:51:14;32.10;51.80
10678;DHT22;5387;48.722;9.110;2023-06-04T12:53:42;32.60;52.80
10678;DHT22;5387;48.722;9.110;2023-06-04T12:56:09;33.10;50.30
10678;DHT22;5387;48.722;9.110;2023-06-04T12:58:37;30.30;51.80
10678;DHT22;5387;48.722;9.110;2023-06-04T13:01:03;27.90;53.60
10678;DHT22;5387;48.722;9.110;2023-06-04T13:03:31;28.40;55.80
10678;DHT22;5387;48.722;9.110;2023-06-04T13:05:58;30.00;54.10
10678;DHT22;5387;48.722;9.110;2023-06-04T13:08:25;29.70;51.60
10678;DHT22;5387;48.722;9.110;2023-06-04T13:10:53;29.70;52.00
10678;DHT22;5387;48.722;9.110;2023-06-04T13:13:20;30.20;54.40
10678;DHT22;5387;48.722;9.110;2023-06-04T13:15:47;30.80;50.70
10678;DHT22;5387;48.722;9.110;2023-06-04T13:18:14;29.60;50.70
10678;DHT22;5387;48.722;9.110;2023-06-04T13:20:41;29.50;49.80
10678;DHT22;5387;48.722;9.110;2023-06-04T13:23:08;30.30;50.40
10678;DHT22;5387;48.722;9.110;2023-06-04T13:25:35;30.80;50.90
10678;DHT22;5387;48.722;9.110;2023-06-04T13:28:03;31.00;48.60
10678;DHT22;5387;48.722;9.110;2023-06-04T13:30:30;31.30;47.00
10678;DHT22;5387;48.722;9.110;2023-06-04T13:32:57;31.40;47.10
10678;DHT22;5387;48.722;9.110;2023-06-04T13:35:25;29.00;48.30
10678;DHT22;5387;48.722;9.110;2023-06-04T13:37:51;27.90;50.10
10678;DHT22;5387;48.722;9.110;2023-06-04T13:40:18;27.70;50.40
10678;DHT22;5387;48.722;9.110;2023-06-04T13:42:45;28.30;54.00
10678;DHT22;5387;48.722;9.110;2023-06-04T13:45:13;29.40;51.40
10678;DHT22;5387;48.722;9.110;2023-06-04T13:47:42;29.00;50.50
10678;DHT22;5387;48.722;9.110;2023-06-04T13:50:10;29.20;52.70
10678;DHT22;5387;48.722;9.110;2023-06-04T13:52:37;28.80;53.10
10678;DHT22;5387;48.722;9.110;2023-06-04T13:55:04;27.40;51.40
10678;DHT22;5387;48.722;9.110;2023-06-04T13:57:31;27.30;52.20
10678;DHT22;5387;48.722;9.110;2023-06-04T13:59:58;26.90;52.40
10678;DHT22;5387;48.722;9.110;2023-06-04T14:02:26;26.60;53.40
10678;DHT22;5387;48.722;9.110;2023-06-04T14:04:53;26.40;53.00
10678;DHT22;5387;48.722;9.110;2023-06-04T14:07:21;26.20;54.60
10678;DHT22;5387;48.722;9.110;2023-06-04T14:09:48;25.90;52.20
10678;DHT22;5387;48.722;9.110;2023-06-04T14:12:20;25.60;53.20
10678;DHT22;5387;48.722;9.110;2023-06-04T14:14:46;25.30;54.20
10678;DHT22;5387;48.722;9.110;2023-06-04T14:17:13;25.50;55.20
10678;DHT22;5387;48.722;9.110;2023-06-04T14:19:41;25.30;53.60
10678;DHT22;5387;48.722;9.110;2023-06-04T14:22:09;25.20;54.40
10678;DHT22;5387;48.722;9.110;2023-06-04T14:24:36;24.70;54.20
10678;DHT22;5387;48.722;9.110;2023-06-04T14:27:03;24.50;54.40
10678;DHT22;5387;48.722;9.110;2023-06-04T14:29:30;24.50;55.20
10678;DHT22;5387;48.722;9.110;2023-06-04T14:31:57;24.30;54.00
10678;DHT22;5387;48.722;9.110;2023-06-04T14:34:24;24.60;56.60
10678;DHT22;5387;48.722;9.110;2023-06-04T14:36:52;24.80;56.30
10678;DHT22;5387;48.722;9.110;2023-06-04T14:39:19;25.00;55.10
10678;DHT22;5387;48.722;9.110;2023-06-04T14:41:46;25.10;56.10
10678;DHT22;5387;48.722;9.110;2023-06-04T14:44:13;24.80;55.10
10678;DHT22;5387;48.722;9.110;2023-06-04T14:46:40;24.60;54.30
10678;DHT22;5387;48.722;9.110;2023-06-04T14:49:06;24.70;56.90
10678;DHT22;5387;48.722;9.110;2023-06-04T14:51:33;24.90;55.40
10678;DHT22;5387;48.722;9.110;2023-06-04T14:54:01;24.80;53.40
10678;DHT22;5387;48.722;9.110;2023-06-04T14:56:28;24.60;54.10
10678;DHT22;5387;48.722;9.110;2023-06-04T14:58:56;24.30;54.30
10678;DHT22;5387;48.722;9.110;2023-06-04T15:01:22;24.30;56.50
10678;DHT22;5387;48.722;9.110;2023-06-04T15:03:49;24.30;57.90
10678;DHT22;5387;48.722;9.110;2023-06-04T15:06:16;24.30;55.20
10678;DHT22;5387;48.722;9.110;2023-06-04T15:08:43;24.30;56.80
10678;DHT22;5387;48.722;9.110;2023-06-04T15:11:11;24.40;55.90
10678;DHT22;5387;48.722;9.110;2023-06-04T15:13:38;24.40;57.00
10678;DHT22;5387;48.722;9.110;2023-06-04T15:16:04;24.30;55.10
10678;DHT22;5387;48.722;9.110;2023-06-04T15:18:31;24.40;53.20
10678;DHT22;5387;48.722;9.110;2023-06-04T15:20:58;24.30;52.40
10678;DHT22;5387;48.722;9.110;2023-06-04T15:23:25;24.40;55.00
10678;DHT22;5387;48.722;9.110;2023-06-04T15:25:52;24.40;53.10
10678;DHT22;5387;48.722;9.110;2023-06-04T15:28:20;24.40;54.50
10678;DHT22;5387;48.722;9.110;2023-06-04T15:30:46;24.20;54.90
10678;DHT22;5387;48.722;9.110;2023-06-04T15:33:13;24.20;54.90
10678;DHT22;5387;48.722;9.110;2023-06-04T15:35:41;23.90;53.30
10678;DHT22;5387;48.722;9.110;2023-06-04T15:38:08;23.90;54.50
10678;DHT22;5387;48.722;9.110;2023-06-04T15:40:35;23.80;53.60
10678;DHT22;5387;48.722;9.110;2023-06-04T15:43:02;23.90;54.60
10678;DHT22;5387;48.722;9.110;2023-06-04T15:45:30;23.90;54.40
10678;DHT22;5387;48.722;9.110;2023-06-04T15:47:57;23.80;54.70
10678;DHT22;5387;48.722;9.110;2023-06-04T15:50:23;23.80;54.80